KPHL/PHL METAR and TAF weather

Enter ICAO airport designator
Station Type Date Time Source
KPHL METAR 2021/02/27 08:54 UTC NOAA

KPHL 270854Z 05007KT 9SM -RA SCT006 OVC035 02/02 A3028 RMK AO2 SLP255 RAB0756 P0002 60010 T00220017 58043


Station Type Date Time Source
KPHL Decoded METAR 2021/02/27 08:54 UTC NOAA

PHILADELPHIA INTERNATIONAL AIRPT, PA, United States (KPHL) 39-52N 075-14W 18M
Feb 27, 2021 - 03:54 AM EST / 2021.02.27 0854 UTC
Wind: from the NE (050 degrees) at 8 MPH (7 KT):0
Visibility: 9 mile(s):0
Sky conditions: overcast
Weather: light rain
Precipitation last hour: 0.02 inches
Temperature: 36.0 F (2.2 C)
Dew Point: 35.1 F (1.7 C)
Relative Humidity: 96%
Pressure (altimeter): 30.28 in. Hg (1025 hPa)
Pressure tendency: 0.13 inches (4.3 hPa) lower than three hours ago
ob: KPHL 270854Z 05007KT 9SM -RA SCT006 OVC035 02/02 A3028 RMK AO2 SLP255 RAB0756 P0002 60010 T00220017 58043
cycle: 9

Station Type Date Time Source
KPHL TAF 2021/02/27 06:46 UTC NOAA

TAF KPHL 270539Z 2706/2812 VRB04KT 6SM -RA BR SCT015 OVC025
FM270800 11007KT 4SM -RA BR OVC010 WS020/14040KT
FM271400 10005KT 4SM -RA BR OVC005 WS020/18040KT
FM271700 22005KT 6SM BR VCSH OVC005
FM272000 26009KT P6SM BKN010
FM280100 VRB04KT P6SM SCT040 WS020/30035KT

Example: see airport list